sensor_id;sensor_type;location;lat;lon;timestamp;pressure;altitude;pressure_sealevel;temperature;humidity
47753;BME280;2038;51.728;6.674;2023-08-20T00:02:18;101406.78;;;19.04;100.00
47753;BME280;2038;51.728;6.674;2023-08-20T00:04:49;101407.34;;;18.97;100.00
47753;BME280;2038;51.728;6.674;2023-08-20T00:07:16;101399.44;;;18.94;100.00
47753;BME280;2038;51.728;6.674;2023-08-20T00:09:44;101397.72;;;18.93;100.00
47753;BME280;2038;51.728;6.674;2023-08-20T00:12:10;101400.91;;;18.88;100.00
47753;BME280;2038;51.728;6.674;2023-08-20T00:17:37;101400.78;;;18.85;100.00
47753;BME280;2038;51.728;6.674;2023-08-20T00:20:07;101403.41;;;18.86;100.00
47753;BME280;2038;51.728;6.674;2023-08-20T00:22:39;101406.75;;;18.84;100.00
47753;BME280;2038;51.728;6.674;2023-08-20T00:25:08;101396.22;;;18.79;100.00
47753;BME280;2038;51.728;6.674;2023-08-20T00:27:35;101401.50;;;18.82;100.00
47753;BME280;2038;51.728;6.674;2023-08-20T00:30:01;101395.47;;;18.82;100.00
47753;BME280;2038;51.728;6.674;2023-08-20T00:32:28;101397.91;;;18.79;100.00
47753;BME280;2038;51.728;6.674;2023-08-20T00:34:55;101401.31;;;18.78;100.00
47753;BME280;2038;51.728;6.674;2023-08-20T00:37:21;101396.22;;;18.79;100.00
47753;BME280;2038;51.728;6.674;2023-08-20T00:39:48;101392.75;;;18.79;100.00
47753;BME280;2038;51.728;6.674;2023-08-20T00:42:14;101401.25;;;18.76;100.00
47753;BME280;2038;51.728;6.674;2023-08-20T00:44:41;101406.34;;;18.75;100.00
47753;BME280;2038;51.728;6.674;2023-08-20T00:47:10;101413.84;;;18.68;100.00
47753;BME280;2038;51.728;6.674;2023-08-20T00:49:39;101399.38;;;18.72;100.00
47753;BME280;2038;51.728;6.674;2023-08-20T00:52:09;101406.22;;;18.72;100.00
47753;BME280;2038;51.728;6.674;2023-08-20T00:54:37;101400.06;;;18.68;100.00
47753;BME280;2038;51.728;6.674;2023-08-20T00:57:07;101404.34;;;18.67;100.00
47753;BME280;2038;51.728;6.674;2023-08-20T00:59:34;101415.66;;;18.71;100.00
47753;BME280;2038;51.728;6.674;2023-08-20T01:02:01;101420.72;;;18.68;100.00
47753;BME280;2038;51.728;6.674;2023-08-20T01:04:29;101420.72;;;18.68;100.00
47753;BME280;2038;51.728;6.674;2023-08-20T01:13:20;101423.09;;;18.63;100.00
47753;BME280;2038;51.728;6.674;2023-08-20T01:15:46;101433.09;;;18.56;100.00
47753;BME280;2038;51.728;6.674;2023-08-20T01:18:12;101433.84;;;18.53;100.00
47753;BME280;2038;51.728;6.674;2023-08-20T01:20:47;101424.53;;;18.57;100.00
47753;BME280;2038;51.728;6.674;2023-08-20T01:23:36;101420.25;;;18.57;100.00
47753;BME280;2038;51.728;6.674;2023-08-20T01:29:51;101425.53;;;18.60;100.00
47753;BME280;2038;51.728;6.674;2023-08-20T01:32:18;101425.75;;;18.65;100.00
47753;BME280;2038;51.728;6.674;2023-08-20T01:34:46;101424.88;;;18.64;100.00
47753;BME280;2038;51.728;6.674;2023-08-20T01:37:14;101436.00;;;18.63;100.00
47753;BME280;2038;51.728;6.674;2023-08-20T01:39:40;101426.34;;;18.59;100.00
47753;BME280;2038;51.728;6.674;2023-08-20T01:42:07;101429.75;;;18.58;100.00
47753;BME280;2038;51.728;6.674;2023-08-20T01:44:33;101429.53;;;18.54;100.00
47753;BME280;2038;51.728;6.674;2023-08-20T01:46:59;101429.16;;;18.46;100.00
47753;BME280;2038;51.728;6.674;2023-08-20T01:49:25;101440.94;;;18.40;100.00
47753;BME280;2038;51.728;6.674;2023-08-20T01:51:52;101445.34;;;18.42;100.00
47753;BME280;2038;51.728;6.674;2023-08-20T01:54:18;101441.19;;;18.46;100.00
47753;BME280;2038;51.728;6.674;2023-08-20T01:56:44;101456.19;;;18.53;100.00
47753;BME280;2038;51.728;6.674;2023-08-20T01:59:10;101460.00;;;18.61;100.00
47753;BME280;2038;51.728;6.674;2023-08-20T02:01:37;101463.66;;;18.66;100.00
47753;BME280;2038;51.728;6.674;2023-08-20T02:04:03;101461.00;;;18.64;100.00
47753;BME280;2038;51.728;6.674;2023-08-20T02:06:29;101470.22;;;18.79;100.00
47753;BME280;2038;51.728;6.674;2023-08-20T02:08:55;101468.63;;;18.81;100.00
47753;BME280;2038;51.728;6.674;2023-08-20T02:11:22;101470.44;;;18.83;100.00
47753;BME280;2038;51.728;6.674;2023-08-20T02:13:48;101478.31;;;18.86;100.00
47753;BME280;2038;51.728;6.674;2023-08-20T02:16:14;101467.09;;;18.86;100.00
47753;BME280;2038;51.728;6.674;2023-08-20T02:18:42;101474.66;;;18.81;100.00
47753;BME280;2038;51.728;6.674;2023-08-20T02:21:08;101481.25;;;18.75;100.00
47753;BME280;2038;51.728;6.674;2023-08-20T02:23:34;101479.69;;;18.78;100.00
47753;BME280;2038;51.728;6.674;2023-08-20T02:26:00;101486.53;;;18.78;100.00
47753;BME280;2038;51.728;6.674;2023-08-20T02:28:28;101480.53;;;18.77;100.00
47753;BME280;2038;51.728;6.674;2023-08-20T02:30:54;101489.50;;;18.85;100.00
47753;BME280;2038;51.728;6.674;2023-08-20T02:33:20;101480.78;;;18.83;100.00
47753;BME280;2038;51.728;6.674;2023-08-20T02:35:46;101485.19;;;18.86;100.00
47753;BME280;2038;51.728;6.674;2023-08-20T02:38:12;101480.22;;;18.90;100.00
47753;BME280;2038;51.728;6.674;2023-08-20T02:40:41;101487.34;;;18.96;100.00
47753;BME280;2038;51.728;6.674;2023-08-20T02:43:07;101484.22;;;19.03;100.00
47753;BME280;2038;51.728;6.674;2023-08-20T02:45:39;101481.63;;;19.03;100.00
47753;BME280;2038;51.728;6.674;2023-08-20T02:48:06;101494.81;;;19.09;100.00
47753;BME280;2038;51.728;6.674;2023-08-20T02:50:32;101490.19;;;19.02;100.00
47753;BME280;2038;51.728;6.674;2023-08-20T02:52:58;101490.38;;;19.06;100.00
47753;BME280;2038;51.728;6.674;2023-08-20T02:55:25;101495.50;;;19.05;100.00
47753;BME280;2038;51.728;6.674;2023-08-20T02:57:51;101488.81;;;19.10;100.00
47753;BME280;2038;51.728;6.674;2023-08-20T03:00:17;101501.94;;;19.14;100.00
47753;BME280;2038;51.728;6.674;2023-08-20T03:02:43;101503.16;;;19.23;100.00
47753;BME280;2038;51.728;6.674;2023-08-20T03:05:10;101497.97;;;19.23;100.00
47753;BME280;2038;51.728;6.674;2023-08-20T03:07:36;101496.47;;;19.28;100.00
47753;BME280;2038;51.728;6.674;2023-08-20T03:10:03;101500.97;;;19.32;100.00
47753;BME280;2038;51.728;6.674;2023-08-20T03:12:29;101498.44;;;19.33;100.00
47753;BME280;2038;51.728;6.674;2023-08-20T03:14:56;101495.88;;;19.33;100.00
47753;BME280;2038;51.728;6.674;2023-08-20T03:17:22;101504.50;;;19.34;100.00
47753;BME280;2038;51.728;6.674;2023-08-20T03:19:59;101497.56;;;19.33;100.00
47753;BME280;2038;51.728;6.674;2023-08-20T03:22:26;101497.59;;;19.34;100.00
47753;BME280;2038;51.728;6.674;2023-08-20T03:24:53;101491.50;;;19.32;100.00
47753;BME280;2038;51.728;6.674;2023-08-20T03:27:20;101500.19;;;19.34;100.00
47753;BME280;2038;51.728;6.674;2023-08-20T03:29:46;101506.13;;;19.32;100.00
47753;BME280;2038;51.728;6.674;2023-08-20T03:32:12;101500.16;;;19.33;100.00
47753;BME280;2038;51.728;6.674;2023-08-20T03:34:39;101487.09;;;19.30;100.00
47753;BME280;2038;51.728;6.674;2023-08-20T03:37:05;101487.84;;;19.27;100.00
47753;BME280;2038;51.728;6.674;2023-08-20T03:39:31;101491.19;;;19.25;100.00
47753;BME280;2038;51.728;6.674;2023-08-20T03:41:58;101485.94;;;19.23;100.00
47753;BME280;2038;51.728;6.674;2023-08-20T03:44:24;101481.59;;;19.22;100.00
47753;BME280;2038;51.728;6.674;2023-08-20T03:46:50;101485.00;;;19.21;100.00
47753;BME280;2038;51.728;6.674;2023-08-20T03:49:16;101488.22;;;19.15;100.00
47753;BME280;2038;51.728;6.674;2023-08-20T03:51:43;101485.50;;;19.12;100.00
47753;BME280;2038;51.728;6.674;2023-08-20T03:54:09;101484.16;;;19.01;100.00
47753;BME280;2038;51.728;6.674;2023-08-20T03:56:36;101486.47;;;18.95;100.00
47753;BME280;2038;51.728;6.674;2023-08-20T03:59:03;101479.28;;;18.88;100.00
47753;BME280;2038;51.728;6.674;2023-08-20T04:01:30;101477.44;;;18.86;100.00
47753;BME280;2038;51.728;6.674;2023-08-20T04:03:56;101479.06;;;18.84;100.00
47753;BME280;2038;51.728;6.674;2023-08-20T04:06:22;101477.97;;;18.79;100.00
47753;BME280;2038;51.728;6.674;2023-08-20T04:08:48;101484.50;;;18.70;100.00
47753;BME280;2038;51.728;6.674;2023-08-20T04:11:15;101482.78;;;18.69;100.00
47753;BME280;2038;51.728;6.674;2023-08-20T04:13:41;101482.78;;;18.69;100.00
47753;BME280;2038;51.728;6.674;2023-08-20T04:16:09;101478.19;;;18.64;100.00
47753;BME280;2038;51.728;6.674;2023-08-20T04:18:36;101476.56;;;18.66;100.00
47753;BME280;2038;51.728;6.674;2023-08-20T04:21:02;101477.19;;;18.60;100.00
47753;BME280;2038;51.728;6.674;2023-08-20T04:23:28;101478.88;;;18.60;100.00
47753;BME280;2038;51.728;6.674;2023-08-20T04:25:54;101479.31;;;18.51;100.00
47753;BME280;2038;51.728;6.674;2023-08-20T04:28:20;101477.66;;;18.52;100.00
47753;BME280;2038;51.728;6.674;2023-08-20T04:30:47;101471.03;;;18.39;100.00
47753;BME280;2038;51.728;6.674;2023-08-20T04:33:14;101485.91;;;18.45;100.00
47753;BME280;2038;51.728;6.674;2023-08-20T04:35:40;101492.69;;;18.43;100.00
47753;BME280;2038;51.728;6.674;2023-08-20T04:38:06;101495.59;;;18.31;100.00
47753;BME280;2038;51.728;6.674;2023-08-20T04:40:33;101495.00;;;18.37;100.00
47753;BME280;2038;51.728;6.674;2023-08-20T04:43:00;101501.78;;;18.35;100.00
47753;BME280;2038;51.728;6.674;2023-08-20T04:45:26;101507.75;;;18.34;100.00
47753;BME280;2038;51.728;6.674;2023-08-20T04:47:52;101508.28;;;18.27;100.00
47753;BME280;2038;51.728;6.674;2023-08-20T04:50:18;101511.03;;;18.12;100.00
47753;BME280;2038;51.728;6.674;2023-08-20T04:52:44;101510.75;;;18.06;100.00
47753;BME280;2038;51.728;6.674;2023-08-20T04:55:11;101508.91;;;18.21;100.00
47753;BME280;2038;51.728;6.674;2023-08-20T04:57:37;101500.53;;;18.27;100.00
47753;BME280;2038;51.728;6.674;2023-08-20T05:00:03;101505.25;;;18.35;100.00
47753;BME280;2038;51.728;6.674;2023-08-20T05:02:31;101507.97;;;18.38;100.00
47753;BME280;2038;51.728;6.674;2023-08-20T05:04:57;101503.78;;;18.40;100.00
47753;BME280;2038;51.728;6.674;2023-08-20T05:07:23;101509.16;;;18.45;100.00
47753;BME280;2038;51.728;6.674;2023-08-20T05:09:50;101507.50;;;18.47;100.00
47753;BME280;2038;51.728;6.674;2023-08-20T05:12:16;101505.50;;;18.59;100.00
47753;BME280;2038;51.728;6.674;2023-08-20T05:14:42;101504.91;;;18.64;100.00
47753;BME280;2038;51.728;6.674;2023-08-20T05:17:09;101505.16;;;18.70;100.00
47753;BME280;2038;51.728;6.674;2023-08-20T05:19:35;101513.06;;;18.74;100.00
47753;BME280;2038;51.728;6.674;2023-08-20T05:22:01;101513.13;;;18.75;100.00
47753;BME280;2038;51.728;6.674;2023-08-20T05:24:27;101508.28;;;18.83;100.00
47753;BME280;2038;51.728;6.674;2023-08-20T05:27:06;101504.34;;;18.91;100.00
47753;BME280;2038;51.728;6.674;2023-08-20T05:29:40;101512.59;;;19.01;100.00
47753;BME280;2038;51.728;6.674;2023-08-20T05:32:07;101516.38;;;19.09;100.00
47753;BME280;2038;51.728;6.674;2023-08-20T05:34:34;101515.88;;;19.18;100.00
47753;BME280;2038;51.728;6.674;2023-08-20T05:37:01;101512.75;;;19.25;100.00
47753;BME280;2038;51.728;6.674;2023-08-20T05:39:29;101515.69;;;19.34;100.00
47753;BME280;2038;51.728;6.674;2023-08-20T05:41:56;101523.66;;;19.39;100.00
47753;BME280;2038;51.728;6.674;2023-08-20T05:44:22;101513.75;;;19.48;100.00
47753;BME280;2038;51.728;6.674;2023-08-20T05:46:49;101516.91;;;19.61;100.00
47753;BME280;2038;51.728;6.674;2023-08-20T05:49:15;101519.03;;;19.72;100.00
47753;BME280;2038;51.728;6.674;2023-08-20T05:51:42;101518.75;;;19.86;100.00
47753;BME280;2038;51.728;6.674;2023-08-20T05:54:09;101522.72;;;19.99;100.00
47753;BME280;2038;51.728;6.674;2023-08-20T05:56:35;101519.53;;;20.06;100.00
47753;BME280;2038;51.728;6.674;2023-08-20T05:59:01;101522.47;;;20.14;100.00
47753;BME280;2038;51.728;6.674;2023-08-20T06:01:28;101529.53;;;20.18;100.00
47753;BME280;2038;51.728;6.674;2023-08-20T06:03:54;101534.94;;;20.24;100.00
47753;BME280;2038;51.728;6.674;2023-08-20T06:06:20;101530.88;;;20.30;100.00
47753;BME280;2038;51.728;6.674;2023-08-20T06:08:47;101532.91;;;20.37;100.00
47753;BME280;2038;51.728;6.674;2023-08-20T06:11:14;101543.38;;;20.40;100.00
47753;BME280;2038;51.728;6.674;2023-08-20T06:13:40;101547.03;;;20.45;100.00
47753;BME280;2038;51.728;6.674;2023-08-20T06:16:07;101541.91;;;20.47;100.00
47753;BME280;2038;51.728;6.674;2023-08-20T06:18:33;101543.06;;;20.55;100.00
47753;BME280;2038;51.728;6.674;2023-08-20T06:21:00;101541.47;;;20.59;100.00
47753;BME280;2038;51.728;6.674;2023-08-20T06:23:26;101540.94;;;20.67;100.00
47753;BME280;2038;51.728;6.674;2023-08-20T06:25:52;101540.31;;;20.74;100.00
47753;BME280;2038;51.728;6.674;2023-08-20T06:28:19;101538.03;;;20.82;100.00
47753;BME280;2038;51.728;6.674;2023-08-20T06:30:45;101532.25;;;20.89;100.00
47753;BME280;2038;51.728;6.674;2023-08-20T06:33:12;101533.25;;;20.92;100.00
47753;BME280;2038;51.728;6.674;2023-08-20T06:35:39;101534.94;;;20.92;100.00
47753;BME280;2038;51.728;6.674;2023-08-20T06:38:07;101527.44;;;20.99;100.00
47753;BME280;2038;51.728;6.674;2023-08-20T06:40:33;101531.19;;;21.08;100.00
47753;BME280;2038;51.728;6.674;2023-08-20T06:43:00;101533.31;;;21.18;100.00
47753;BME280;2038;51.728;6.674;2023-08-20T06:45:26;101533.63;;;21.27;100.00
47753;BME280;2038;51.728;6.674;2023-08-20T06:47:52;101527.97;;;21.38;100.00
47753;BME280;2038;51.728;6.674;2023-08-20T06:50:18;101530.94;;;21.49;100.00
47753;BME280;2038;51.728;6.674;2023-08-20T06:52:44;101534.72;;;21.59;100.00
47753;BME280;2038;51.728;6.674;2023-08-20T06:55:11;101541.91;;;21.67;100.00
47753;BME280;2038;51.728;6.674;2023-08-20T06:57:37;101538.41;;;21.65;100.00
47753;BME280;2038;51.728;6.674;2023-08-20T07:00:04;101538.81;;;21.77;100.00
47753;BME280;2038;51.728;6.674;2023-08-20T07:02:31;101543.22;;;21.80;100.00
47753;BME280;2038;51.728;6.674;2023-08-20T07:04:57;101545.22;;;21.62;100.00
47753;BME280;2038;51.728;6.674;2023-08-20T07:07:23;101546.13;;;21.64;100.00
47753;BME280;2038;51.728;6.674;2023-08-20T07:09:50;101548.09;;;21.71;100.00
47753;BME280;2038;51.728;6.674;2023-08-20T07:12:16;101551.06;;;21.81;100.00
47753;BME280;2038;51.728;6.674;2023-08-20T07:14:42;101559.00;;;21.86;100.00
47753;BME280;2038;51.728;6.674;2023-08-20T07:17:08;101549.53;;;21.88;100.00
47753;BME280;2038;51.728;6.674;2023-08-20T07:19:37;101553.19;;;21.93;100.00
47753;BME280;2038;51.728;6.674;2023-08-20T07:22:03;101548.00;;;21.93;100.00
47753;BME280;2038;51.728;6.674;2023-08-20T07:24:30;101549.13;;;22.01;100.00
47753;BME280;2038;51.728;6.674;2023-08-20T07:27:01;101553.75;;;22.11;100.00
47753;BME280;2038;51.728;6.674;2023-08-20T07:29:29;101554.78;;;22.16;100.00
47753;BME280;2038;51.728;6.674;2023-08-20T07:31:57;101558.38;;;22.20;100.00
47753;BME280;2038;51.728;6.674;2023-08-20T07:34:23;101552.28;;;22.48;100.00
47753;BME280;2038;51.728;6.674;2023-08-20T07:36:49;101557.09;;;22.62;100.00
47753;BME280;2038;51.728;6.674;2023-08-20T07:39:16;101552.88;;;22.67;100.00
47753;BME280;2038;51.728;6.674;2023-08-20T07:41:42;101561.06;;;22.79;100.00
47753;BME280;2038;51.728;6.674;2023-08-20T07:44:08;101557.63;;;22.80;100.00
47753;BME280;2038;51.728;6.674;2023-08-20T07:46:35;101555.09;;;22.82;100.00
47753;BME280;2038;51.728;6.674;2023-08-20T07:49:01;101558.72;;;22.89;100.00
47753;BME280;2038;51.728;6.674;2023-08-20T07:51:27;101552.88;;;22.96;100.00
47753;BME280;2038;51.728;6.674;2023-08-20T07:53:54;101550.06;;;22.88;100.00
47753;BME280;2038;51.728;6.674;2023-08-20T07:56:20;101551.28;;;23.01;100.00
47753;BME280;2038;51.728;6.674;2023-08-20T07:58:46;101558.13;;;22.97;100.00
47753;BME280;2038;51.728;6.674;2023-08-20T08:01:12;101555.72;;;23.05;100.00
47753;BME280;2038;51.728;6.674;2023-08-20T08:03:40;101560.50;;;23.21;100.00
47753;BME280;2038;51.728;6.674;2023-08-20T08:06:06;101554.00;;;23.37;100.00
47753;BME280;2038;51.728;6.674;2023-08-20T08:08:33;101559.31;;;23.41;100.00
47753;BME280;2038;51.728;6.674;2023-08-20T08:10:59;101558.72;;;23.50;100.00
47753;BME280;2038;51.728;6.674;2023-08-20T08:13:26;101570.28;;;23.61;100.00
47753;BME280;2038;51.728;6.674;2023-08-20T08:15:52;101559.16;;;23.66;100.00
47753;BME280;2038;51.728;6.674;2023-08-20T08:18:22;101568.69;;;23.67;100.00
47753;BME280;2038;51.728;6.674;2023-08-20T08:20:48;101566.09;;;23.67;100.00
47753;BME280;2038;51.728;6.674;2023-08-20T08:23:15;101571.28;;;23.66;100.00
47753;BME280;2038;51.728;6.674;2023-08-20T08:25:41;101572.03;;;23.62;100.00
47753;BME280;2038;51.728;6.674;2023-08-20T08:28:07;101574.13;;;23.75;100.00
47753;BME280;2038;51.728;6.674;2023-08-20T08:30:34;101571.53;;;23.76;100.00
47753;BME280;2038;51.728;6.674;2023-08-20T08:33:00;101575.13;;;23.82;100.00
47753;BME280;2038;51.728;6.674;2023-08-20T08:35:26;101582.41;;;23.95;100.00
47753;BME280;2038;51.728;6.674;2023-08-20T08:37:53;101579.75;;;23.93;100.00
47753;BME280;2038;51.728;6.674;2023-08-20T08:40:19;101573.84;;;24.00;100.00
47753;BME280;2038;51.728;6.674;2023-08-20T08:42:48;101585.16;;;24.01;100.00
47753;BME280;2038;51.728;6.674;2023-08-20T08:45:21;101577.59;;;24.11;100.00
47753;BME280;2038;51.728;6.674;2023-08-20T08:47:48;101584.19;;;23.97;100.00
47753;BME280;2038;51.728;6.674;2023-08-20T08:50:15;101588.47;;;23.94;100.00
47753;BME280;2038;51.728;6.674;2023-08-20T08:52:42;101580.88;;;24.03;100.00
47753;BME280;2038;51.728;6.674;2023-08-20T08:55:10;101585.34;;;24.08;100.00
47753;BME280;2038;51.728;6.674;2023-08-20T08:57:37;101580.91;;;24.04;100.00
47753;BME280;2038;51.728;6.674;2023-08-20T09:00:04;101588.72;;;24.04;100.00
47753;BME280;2038;51.728;6.674;2023-08-20T09:02:31;101581.78;;;24.05;100.00
47753;BME280;2038;51.728;6.674;2023-08-20T09:04:58;101588.59;;;24.00;100.00
47753;BME280;2038;51.728;6.674;2023-08-20T09:07:24;101591.69;;;24.18;100.00
47753;BME280;2038;51.728;6.674;2023-08-20T09:09:50;101595.34;;;24.26;100.00
47753;BME280;2038;51.728;6.674;2023-08-20T09:12:18;101590.38;;;24.35;100.00
47753;BME280;2038;51.728;6.674;2023-08-20T09:14:52;101588.75;;;24.42;100.00
47753;BME280;2038;51.728;6.674;2023-08-20T09:17:20;101599.13;;;24.39;100.00
47753;BME280;2038;51.728;6.674;2023-08-20T09:19:47;101596.41;;;24.34;100.00
47753;BME280;2038;51.728;6.674;2023-08-20T09:22:13;101602.63;;;24.39;100.00
47753;BME280;2038;51.728;6.674;2023-08-20T09:24:44;101578.28;;;24.39;100.00
47753;BME280;2038;51.728;6.674;2023-08-20T09:27:13;101587.03;;;24.42;100.00
47753;BME280;2038;51.728;6.674;2023-08-20T09:29:47;101584.66;;;24.51;100.00
47753;BME280;2038;51.728;6.674;2023-08-20T09:32:16;101590.81;;;24.55;100.00
47753;BME280;2038;51.728;6.674;2023-08-20T09:34:49;101582.25;;;24.62;100.00
47753;BME280;2038;51.728;6.674;2023-08-20T09:37:21;101589.31;;;24.66;100.00
47753;BME280;2038;51.728;6.674;2023-08-20T09:39:49;101584.97;;;24.66;100.00
47753;BME280;2038;51.728;6.674;2023-08-20T09:42:16;101596.34;;;24.70;100.00
47753;BME280;2038;51.728;6.674;2023-08-20T09:44:44;101597.97;;;24.65;100.00
47753;BME280;2038;51.728;6.674;2023-08-20T09:47:15;101596.97;;;24.58;100.00
47753;BME280;2038;51.728;6.674;2023-08-20T09:49:46;101586.75;;;24.69;100.00
47753;BME280;2038;51.728;6.674;2023-08-20T09:52:42;101584.09;;;24.66;100.00
47753;BME280;2038;51.728;6.674;2023-08-20T09:55:17;101587.06;;;24.84;100.00
47753;BME280;2038;51.728;6.674;2023-08-20T09:57:48;101587.25;;;24.92;100.00
47753;BME280;2038;51.728;6.674;2023-08-20T10:00:15;101599.59;;;24.99;100.00
47753;BME280;2038;51.728;6.674;2023-08-20T10:02:42;101592.91;;;25.11;100.00
47753;BME280;2038;51.728;6.674;2023-08-20T10:05:11;101595.50;;;25.11;100.00
47753;BME280;2038;51.728;6.674;2023-08-20T10:07:40;101598.34;;;25.25;100.00
47753;BME280;2038;51.728;6.674;2023-08-20T10:10:09;101604.56;;;25.30;100.00
47753;BME280;2038;51.728;6.674;2023-08-20T10:12:39;101609.88;;;25.36;100.00
47753;BME280;2038;51.728;6.674;2023-08-20T10:15:08;101609.88;;;25.35;100.00
47753;BME280;2038;51.728;6.674;2023-08-20T10:17:37;101611.22;;;25.16;100.00
47753;BME280;2038;51.728;6.674;2023-08-20T10:20:05;101612.78;;;25.08;100.00
47753;BME280;2038;51.728;6.674;2023-08-20T10:22:37;101610.19;;;25.06;100.00
47753;BME280;2038;51.728;6.674;2023-08-20T10:25:09;101607.66;;;25.11;100.00
47753;BME280;2038;51.728;6.674;2023-08-20T10:27:40;101609.50;;;25.16;100.00
47753;BME280;2038;51.728;6.674;2023-08-20T10:30:18;101611.25;;;25.17;100.00
47753;BME280;2038;51.728;6.674;2023-08-20T10:32:52;101609.72;;;25.27;100.00
47753;BME280;2038;51.728;6.674;2023-08-20T10:38:12;101615.31;;;25.48;100.00
47753;BME280;2038;51.728;6.674;2023-08-20T10:40:53;101613.75;;;25.55;100.00
47753;BME280;2038;51.728;6.674;2023-08-20T10:43:36;101613.84;;;25.61;100.00
47753;BME280;2038;51.728;6.674;2023-08-20T10:46:21;101617.06;;;25.48;100.00
47753;BME280;2038;51.728;6.674;2023-08-20T10:48:50;101617.63;;;25.32;98.13
47753;BME280;2038;51.728;6.674;2023-08-20T10:51:19;101620.19;;;25.29;100.00
47753;BME280;2038;51.728;6.674;2023-08-20T10:54:11;101616.56;;;25.22;99.79
47753;BME280;2038;51.728;6.674;2023-08-20T10:56:48;101614.38;;;25.43;100.00
47753;BME280;2038;51.728;6.674;2023-08-20T10:59:28;101622.81;;;25.30;99.14
47753;BME280;2038;51.728;6.674;2023-08-20T11:01:59;101614.19;;;25.34;100.00
47753;BME280;2038;51.728;6.674;2023-08-20T11:04:31;101623.03;;;25.41;100.00
47753;BME280;2038;51.728;6.674;2023-08-20T11:07:01;101618.63;;;25.38;99.48
47753;BME280;2038;51.728;6.674;2023-08-20T11:09:29;101618.06;;;25.53;100.00
47753;BME280;2038;51.728;6.674;2023-08-20T11:11:57;101622.13;;;25.40;94.63
47753;BME280;2038;51.728;6.674;2023-08-20T11:14:23;101624.75;;;25.39;95.49
47753;BME280;2038;51.728;6.674;2023-08-20T11:16:50;101619.59;;;25.43;95.66
47753;BME280;2038;51.728;6.674;2023-08-20T11:19:21;101618.81;;;25.49;97.29
47753;BME280;2038;51.728;6.674;2023-08-20T11:21:50;101626.69;;;25.50;94.14
47753;BME280;2038;51.728;6.674;2023-08-20T11:24:17;101621.63;;;25.58;94.25
47753;BME280;2038;51.728;6.674;2023-08-20T11:26:45;101621.78;;;25.66;92.14
47753;BME280;2038;51.728;6.674;2023-08-20T11:29:13;101621.81;;;25.67;94.18
47753;BME280;2038;51.728;6.674;2023-08-20T11:31:45;101621.78;;;25.66;88.35
47753;BME280;2038;51.728;6.674;2023-08-20T11:34:12;101623.47;;;25.62;86.83
47753;BME280;2038;51.728;6.674;2023-08-20T11:36:39;101632.97;;;25.58;85.42
47753;BME280;2038;51.728;6.674;2023-08-20T11:39:06;101628.47;;;25.51;87.04
47753;BME280;2038;51.728;6.674;2023-08-20T11:41:37;101630.38;;;25.60;87.62
47753;BME280;2038;51.728;6.674;2023-08-20T11:44:05;101614.81;;;25.66;90.64
47753;BME280;2038;51.728;6.674;2023-08-20T11:46:34;101615.00;;;25.77;93.13
47753;BME280;2038;51.728;6.674;2023-08-20T11:49:10;101622.16;;;25.88;89.62
47753;BME280;2038;51.728;6.674;2023-08-20T11:51:44;101628.22;;;25.86;86.17
47753;BME280;2038;51.728;6.674;2023-08-20T11:54:18;101627.34;;;25.85;83.98
47753;BME280;2038;51.728;6.674;2023-08-20T11:56:49;101629.78;;;25.76;84.79
47753;BME280;2038;51.728;6.674;2023-08-20T11:59:20;101620.44;;;25.87;85.69
47753;BME280;2038;51.728;6.674;2023-08-20T12:01:57;101620.69;;;26.04;81.76
47753;BME280;2038;51.728;6.674;2023-08-20T12:04:27;101620.69;;;26.04;82.01
47753;BME280;2038;51.728;6.674;2023-08-20T12:07:09;101622.38;;;25.99;80.91
47753;BME280;2038;51.728;6.674;2023-08-20T12:09:40;101622.44;;;26.05;82.87
47753;BME280;2038;51.728;6.674;2023-08-20T12:12:07;101614.66;;;26.06;86.74
47753;BME280;2038;51.728;6.674;2023-08-20T12:14:35;101610.38;;;26.12;81.08
47753;BME280;2038;51.728;6.674;2023-08-20T12:17:02;101610.22;;;26.04;79.62
47753;BME280;2038;51.728;6.674;2023-08-20T12:19:31;101608.63;;;26.12;81.02
47753;BME280;2038;51.728;6.674;2023-08-20T12:21:57;101603.56;;;26.21;83.39
47753;BME280;2038;51.728;6.674;2023-08-20T12:24:24;101608.84;;;26.24;81.23
47753;BME280;2038;51.728;6.674;2023-08-20T12:26:51;101600.19;;;26.27;80.12
47753;BME280;2038;51.728;6.674;2023-08-20T12:29:18;101591.50;;;26.29;81.52
47753;BME280;2038;51.728;6.674;2023-08-20T12:31:45;101604.34;;;26.16;83.89
47753;BME280;2038;51.728;6.674;2023-08-20T12:34:12;101600.78;;;26.11;80.04
47753;BME280;2038;51.728;6.674;2023-08-20T12:36:38;101598.34;;;26.21;82.47
47753;BME280;2038;51.728;6.674;2023-08-20T12:39:05;101599.25;;;26.23;80.18
47753;BME280;2038;51.728;6.674;2023-08-20T12:41:31;101584.72;;;26.42;82.13
47753;BME280;2038;51.728;6.674;2023-08-20T12:43:58;101577.00;;;26.52;85.07
47753;BME280;2038;51.728;6.674;2023-08-20T12:46:24;101580.56;;;26.58;78.81
47753;BME280;2038;51.728;6.674;2023-08-20T12:48:50;101578.75;;;26.50;77.24
47753;BME280;2038;51.728;6.674;2023-08-20T12:51:17;101569.13;;;26.49;79.33
47753;BME280;2038;51.728;6.674;2023-08-20T12:53:44;101568.50;;;26.67;80.54
47753;BME280;2038;51.728;6.674;2023-08-20T12:56:10;101570.25;;;26.68;76.63
47753;BME280;2038;51.728;6.674;2023-08-20T12:58:37;101569.31;;;26.63;75.89
47753;BME280;2038;51.728;6.674;2023-08-20T13:01:04;101562.34;;;26.64;79.46
47753;BME280;2038;51.728;6.674;2023-08-20T13:03:30;101559.81;;;26.70;83.37
47753;BME280;2038;51.728;6.674;2023-08-20T13:05:57;101556.34;;;26.72;80.25
47753;BME280;2038;51.728;6.674;2023-08-20T13:08:24;101563.56;;;26.87;82.50
47753;BME280;2038;51.728;6.674;2023-08-20T13:10:54;101561.94;;;27.01;81.94
47753;BME280;2038;51.728;6.674;2023-08-20T13:13:22;101569.84;;;27.06;80.07